Flight Track Log - Related Links

Times and Time Zones

All times are in EDT time to prevent confusion due to time zone crossing. See the BYA373 flight status page for this flight to view local times or setup timezone preferences in your user account.

Time Position Orientation Groundspeed Altitude Reporting Facility
EDT Latitude Longitude Course Direction KTS MPH feet Rate Location/Type
Tue 02:08:39 AM 29.9844 -97.9014 249° West 182 209 5,600  Level Houston Center
Tue 02:09:45 AM 29.9911 -97.9597 278° West 175 201 7,100 1,286 Climbing Houston Center
Tue 02:10:45 AM 29.9808 -98.0117 257° West 170 196 8,300 1,289 Climbing Houston Center
Tue 02:11:46 AM 29.9547 -98.0617 239° Southwest 171 197 9,700 1,240 Climbing Houston Center
Tue 02:12:46 AM 29.9247 -98.1050 231° Southwest 173 199 10,800 1,100 Climbing Houston Center
Tue 02:13:00 AM 29.7170 -98.2656 249° West  Level FlightAware Approximate
Tue 02:13:46 AM 29.8961 -98.1517 235° Southwest 177 204 11,900  Level Houston Center
Tue 02:14:46 AM 29.8661 -98.1953 232° Southwest 173 199 12,900 1,050 Climbing Houston Center
Tue 02:15:46 AM 29.8294 -98.2281 218° Southwest 166 191 14,000 992 Climbing Houston Center
Tue 02:16:47 AM 29.7914 -98.2603 216° Southwest 169 194 14,900 843 Climbing Houston Center
Tue 02:17:47 AM 29.7539 -98.2944 218° Southwest 172 198 15,700 750 Climbing Houston Center
Tue 02:18:47 AM 29.7158 -98.3294 219° Southwest 176 203 16,400 750 Climbing Houston Center
Tue 02:19:47 AM 29.6750 -98.3600 213° Southwest 177 204 17,200 650 Climbing Houston Center
Tue 02:20:47 AM 29.6322 -98.3889 210° Southwest 178 205 17,700 400 Climbing Houston Center
Tue 02:21:47 AM 29.5869 -98.4181 209° Southwest 186 214 18,000 198 Climbing Houston Center
Tue 02:22:48 AM 29.5311 -98.4533 209° Southwest 223 257 18,100 50 Climbing Houston Center
Tue 02:23:48 AM 29.4694 -98.4897 207° Southwest 240 276 18,100  Level Houston Center
Tue 02:24:48 AM 29.4083 -98.5250 207° Southwest 246 283 18,100 -50 Level Houston Center
Tue 02:25:48 AM 29.3458 -98.5639 208° Southwest 255 293 18,000 600 Descending Houston Center
Tue 02:26:48 AM 29.2861 -98.5836 196° South 216 249 19,300 1,050 Climbing Houston Center
Tue 02:27:48 AM 29.2331 -98.6000 195° South 196 226 20,100 650 Climbing Houston Center
Tue 02:28:48 AM 29.1800 -98.6128 192° South 194 223 20,600 446 Climbing Houston Center
Tue 02:29:49 AM 29.1283 -98.6250 192° South 192 221 21,000 446 Climbing Houston Center
Tue 02:30:49 AM 29.0742 -98.6367 191° South 197 227 21,500 400 Climbing Houston Center
Tue 02:31:49 AM 29.0208 -98.6500 192° South 195 224 21,800 250 Climbing Houston Center
Tue 02:32:49 AM 28.9694 -98.6614 191° South 191 220 22,000 100 Climbing Houston Center
Tue 02:33:49 AM 28.9156 -98.6739 191° South 198 228 22,000  Level Houston Center
Tue 02:34:49 AM 28.8586 -98.6847 189° South 206 237 22,000  Level Houston Center
Tue 02:35:50 AM 28.8017 -98.6983 192° South 208 239 22,000  Level Houston Center
Tue 02:36:50 AM 28.7450 -98.7108 191° South 207 238 22,000  Level Houston Center
Tue 02:37:50 AM 28.6856 -98.7239 191° South 214 246 22,000  Level Houston Center
Tue 02:38:50 AM 28.6247 -98.7378 191° South 221 254 22,000  Level Houston Center
Tue 02:39:50 AM 28.5667 -98.7525 193° South 214 246 22,000  Level Houston Center
Tue 02:40:50 AM 28.5075 -98.7686 193° South 217 250 22,000  Level Houston Center
Tue 02:41:51 AM 28.4481 -98.7806 190° South 216 249 22,000  Level Houston Center
Tue 02:42:51 AM 28.3878 -98.7903 188° South 217 250 22,000  Level Houston Center
Tue 02:43:51 AM 28.3281 -98.8017 190° South 218 251 22,000  Level Houston Center
Tue 02:44:51 AM 28.2681 -98.8147 191° South 219 252 22,000  Level Houston Center
Tue 02:45:51 AM 28.2089 -98.8286 192° South 218 251 22,000  Level Houston Center
Tue 02:46:51 AM 28.1475 -98.8444 193° South 224 258 22,000  Level Houston Center
Tue 02:47:52 AM 28.0875 -98.8569 190° South 221 254 22,000 -50 Level Houston Center
Tue 02:48:52 AM 28.0269 -98.8697 191° South 221 254 21,900 -50 Descending Houston Center
Tue 02:49:52 AM 27.9653 -98.8814 189° South 223 257 21,900 50 Level Houston Center
Tue 02:50:52 AM 27.9050 -98.8939 190° South 221 254 22,000 50 Climbing Houston Center
Tue 02:51:52 AM 27.8447 -98.9067 191° South 220 253 22,000  Level Houston Center
Tue 02:52:52 AM 27.7839 -98.9192 190° South 222 255 22,000  Level Houston Center
Tue 02:53:52 AM 27.7225 -98.9306 189° South 223 257 22,000  Level Houston Center
Tue 02:54:53 AM 27.6617 -98.9417 189° South 222 255 22,000  Level Houston Center
Tue 02:55:53 AM 27.6011 -98.9525 189° South 221 254 22,000  Level Houston Center
Tue 02:56:53 AM 27.5411 -98.9644 190° South 221 254 22,000  Level Houston Center
Tue 02:57:53 AM 27.4806 -98.9758 189° South 229 264 22,000  Level Houston Center
Tue 02:58:53 AM 27.4197 -98.9822 185° South 228 262 22,000  Level Houston Center
Tue 02:59:53 AM 27.3572 -98.9892 186° South 226 260 22,000  Level Houston Center
Tue 03:00:54 AM 27.2958 -98.9958 186° South 224 258 22,000  Level Houston Center
Tue 03:01:54 AM 27.2356 -99.0019 185° South 219 252 22,000  Level Houston Center
Tue 03:02:54 AM 27.1756 -99.0083 185° South 218 251 22,000 -50 Level Houston Center
Tue 03:03:54 AM 27.1156 -99.0158 186° South 216 249 21,900 -50 Descending Houston Center
Tue 03:04:54 AM 27.0558 -99.0231 186° South 217 250 21,900 50 Level Houston Center
Tue 03:05:54 AM 26.9958 -99.0303 186° South 216 249 22,000 50 Climbing Houston Center
Tue 03:06:55 AM 26.9353 -99.0353 184° South 217 250 22,000 -50 Level Houston Center
Tue 03:07:55 AM 26.8756 -99.0400 184° South 217 250 21,900 -50 Descending Houston Center
Tue 03:08:55 AM 26.8156 -99.0436 183° South 216 249 21,900 50 Level Houston Center
Tue 03:09:55 AM 26.7553 -99.0472 183° South 216 249 22,000 50 Climbing Houston Center
Tue 03:10:55 AM 26.6961 -99.0483 181° South 214 246 22,000  Level Houston Center
Tue 03:11:55 AM 26.6350 -99.0486 180° South 217 250 22,000  Level Houston Center
Tue 03:12:55 AM 26.5747 -99.0517 187° South 217 250 22,000 50 Level Houston Center
Tue 03:13:00 AM 26.5678 -99.0576 187° South  Level FlightAware Approximate
Tue 03:13:56 AM 26.5017 -99.0556 183° South 217 250 22,100  Level Houston Center
Tue 03:15:00 AM 26.4377 -99.0764 196° South  Level FlightAware Approximate
Tue 03:16:56 AM 26.3181 -99.0686 186° South 220 253 22,000  Level Houston Center
Tue 03:17:56 AM 26.2572 -99.0700 181° South 219 252 22,000  Level Houston Center
Tue 03:18:56 AM 26.1958 -99.0733 183° South 220 253 22,000  Level Houston Center
Tue 03:20:00 AM 26.1297 -99.0822 187° South  Level FlightAware Approximate
Tue 03:22:00 AM 25.9998 -99.1314 186° South  Level FlightAware Approximate
Tue 03:27:00 AM 25.6957 -99.1398 187° South  Level FlightAware Approximate
Tue 03:28:00 AM 25.6336 -99.1481 187° South  Level FlightAware Approximate
Tue 03:29:00 AM 25.5716 -99.1563 187° South  Level FlightAware Approximate
Tue 03:30:00 AM 25.5096 -99.1645 187° South  Level FlightAware Approximate
Tue 03:31:00 AM 25.4476 -99.1726 187° South  Level FlightAware Approximate
Tue 03:32:00 AM 25.3856 -99.1808 187° South  Level FlightAware Approximate
Tue 03:33:00 AM 25.3236 -99.1890 187° South  Level FlightAware Approximate
Tue 03:34:00 AM 25.2616 -99.1971 187° South  Level FlightAware Approximate
Tue 03:35:00 AM 25.1996 -99.2053 187° South  Level FlightAware Approximate
Tue 03:36:00 AM 25.1376 -99.2134 187° South  Level FlightAware Approximate
Tue 03:37:00 AM 25.0756 -99.2215 187° South  Level FlightAware Approximate
Tue 03:38:00 AM 25.0135 -99.2297 187° South  Level FlightAware Approximate
Tue 03:39:00 AM 24.9515 -99.2378 187° South  Level FlightAware Approximate
Tue 03:40:00 AM 24.8895 -99.2459 187° South  Level FlightAware Approximate
Tue 03:41:00 AM 24.8275 -99.2540 187° South  Level FlightAware Approximate
Tue 03:42:00 AM 24.7655 -99.2621 187° South  Level FlightAware Approximate
Tue 03:43:00 AM 24.7035 -99.2702 187° South  Level FlightAware Approximate
Tue 03:44:00 AM 24.6415 -99.2782 187° South  Level FlightAware Approximate
Tue 03:45:00 AM 24.5795 -99.2863 187° South  Level FlightAware Approximate
Tue 03:46:00 AM 24.5174 -99.2944 187° South  Level FlightAware Approximate
Tue 03:47:00 AM 24.4554 -99.3024 187° South  Level FlightAware Approximate
Tue 03:48:00 AM 24.3934 -99.3105 187° South  Level FlightAware Approximate
Tue 03:49:00 AM 24.3314 -99.3185 187° South  Level FlightAware Approximate
Tue 03:50:00 AM 24.2694 -99.3265 187° South  Level FlightAware Approximate
Tue 03:51:00 AM 24.2069 -99.3345 186° South  Level FlightAware Approximate
Tue 03:52:00 AM 24.1448 -99.3417 186° South  Level FlightAware Approximate
Tue 03:53:00 AM 24.0828 -99.3489 186° South  Level FlightAware Approximate
Tue 03:54:00 AM 24.0207 -99.3561 186° South  Level FlightAware Approximate
Tue 03:55:00 AM 23.9585 -99.3633 186° South  Level FlightAware Approximate
Tue 03:56:00 AM 23.8965 -99.3704 186° South  Level FlightAware Approximate
Tue 03:57:00 AM 23.8344 -99.3776 186° South  Level FlightAware Approximate
Tue 03:58:00 AM 23.7722 -99.3848 186° South  Level FlightAware Approximate
Tue 03:59:00 AM 23.7101 -99.3919 186° South  Level FlightAware Approximate
Tue 04:00:00 AM 23.6481 -99.3991 186° South  Level FlightAware Approximate
Tue 04:01:00 AM 23.5860 -99.4062 186° South  Level FlightAware Approximate
Tue 04:02:00 AM 23.5238 -99.4134 186° South  Level FlightAware Approximate
Tue 04:03:00 AM 23.4618 -99.4205 186° South  Level FlightAware Approximate
Tue 04:04:00 AM 23.3997 -99.4276 186° South  Level FlightAware Approximate
Tue 04:05:00 AM 23.3375 -99.4349 187° South  Level FlightAware Approximate
Tue 04:06:00 AM 23.2755 -99.4427 187° South  Level FlightAware Approximate
Tue 04:07:00 AM 23.2135 -99.4505 187° South  Level FlightAware Approximate
Tue 04:08:00 AM 23.1514 -99.4583 187° South  Level FlightAware Approximate
Tue 04:09:00 AM 23.0894 -99.4661 187° South  Level FlightAware Approximate
Tue 04:10:00 AM 23.0274 -99.4739 187° South  Level FlightAware Approximate
Tue 04:11:00 AM 22.9653 -99.4817 187° South  Level FlightAware Approximate
Tue 04:12:00 AM 22.9033 -99.4895 187° South  Level FlightAware Approximate
Tue 04:13:00 AM 22.8413 -99.4973 187° South  Level FlightAware Approximate
Tue 04:14:00 AM 22.7792 -99.5050 187° South  Level FlightAware Approximate
Tue 04:15:00 AM 22.7172 -99.5128 187° South  Level FlightAware Approximate
Tue 04:16:00 AM 22.6551 -99.5205 187° South  Level FlightAware Approximate
Tue 04:17:00 AM 22.5931 -99.5283 187° South  Level FlightAware Approximate
Tue 04:18:00 AM 22.5311 -99.5360 187° South  Level FlightAware Approximate
Tue 04:19:00 AM 22.4690 -99.5437 187° South  Level FlightAware Approximate
Tue 04:20:00 AM 22.4070 -99.5514 187° South  Level FlightAware Approximate
Tue 04:21:00 AM 22.3449 -99.5591 187° South  Level FlightAware Approximate
Tue 04:22:00 AM 22.2829 -99.5668 187° South  Level FlightAware Approximate
Tue 04:23:00 AM 22.2209 -99.5745 187° South  Level FlightAware Approximate
Tue 04:24:00 AM 22.1588 -99.5822 187° South  Level FlightAware Approximate
Tue 04:25:00 AM 22.0988 -99.6004 197° South  Level FlightAware Approximate
Tue 04:26:00 AM 22.0392 -99.6203 197° South  Level FlightAware Approximate
Tue 04:27:00 AM 21.9795 -99.6402 197° South  Level FlightAware Approximate
Tue 04:28:00 AM 21.9205 -99.6623 201° Southwest  Level FlightAware Approximate
Tue 04:29:00 AM 21.8623 -99.6866 201° Southwest  Level FlightAware Approximate
Tue 04:30:00 AM 21.8041 -99.7108 201° Southwest  Level FlightAware Approximate
Tue 04:31:00 AM 21.7458 -99.7350 200° South  Level FlightAware Approximate
Tue 04:32:00 AM 21.6871 -99.7580 200° South  Level FlightAware Approximate
Tue 04:33:00 AM 21.6285 -99.7810 200° South  Level FlightAware Approximate
Tue 04:34:00 AM 21.5698 -99.8040 200° South  Level FlightAware Approximate
Tue 04:35:00 AM 21.5111 -99.8270 200° South  Level FlightAware Approximate
Tue 04:36:00 AM 21.4524 -99.8499 200° South  Level FlightAware Approximate
Tue 04:37:00 AM 21.3937 -99.8729 200° South  Level FlightAware Approximate
Tue 04:38:00 AM 21.3350 -99.8958 200° South  Level FlightAware Approximate
Tue 04:39:00 AM 21.2763 -99.9187 200° South  Level FlightAware Approximate
Tue 04:40:00 AM 21.2176 -99.9415 200° South  Level FlightAware Approximate
Tue 04:41:00 AM 21.1590 -99.9644 200° South  Level FlightAware Approximate
Tue 04:42:00 AM 21.1003 -99.9872 200° South  Level FlightAware Approximate
Tue 04:43:00 AM 21.0415 -100.0101 200° South  Level FlightAware Approximate
Tue 04:44:00 AM 20.9828 -100.0329 200° South  Level FlightAware Approximate
Tue 04:45:00 AM 20.9241 -100.0556 200° South  Level FlightAware Approximate
Tue 04:46:00 AM 20.8654 -100.0784 200° South  Level FlightAware Approximate
Tue 04:47:00 AM 20.8067 -100.1012 200° South  Level FlightAware Approximate
Tue 04:48:00 AM 20.7483 -100.1248 203° Southwest  Level FlightAware Approximate
Tue 04:49:00 AM 20.6907 -100.1505 203° Southwest  Level FlightAware Approximate
Tue 04:50:00 AM 20.6330 -100.1761 203° Southwest  Level FlightAware Approximate
Tue 04:51:00 AM 20.5748 -100.1700 154° Southeast  Level FlightAware Approximate
Tue 04:52:00 AM 20.5189 -100.1403 154° Southeast  Level FlightAware Approximate
Tue 04:53:00 AM 20.4629 -100.1107 154° Southeast  Level FlightAware Approximate
Tue 04:54:00 AM 20.4070 -100.0811 154° Southeast  Level FlightAware Approximate
Tue 04:55:00 AM 20.3510 -100.0515 154° Southeast  Level FlightAware Approximate
Tue 04:56:00 AM 20.2949 -100.0224 155° Southeast  Level FlightAware Approximate
Tue 04:57:00 AM 20.2383 -99.9942 155° Southeast  Level FlightAware Approximate
Tue 04:58:00 AM 20.1818 -99.9660 158° South  Level FlightAware Approximate
Tue 04:59:00 AM 20.1238 -99.9412 158° South  Level FlightAware Approximate
Tue 05:00:00 AM 20.0659 -99.9163 157° South  Level FlightAware Approximate
Tue 05:01:00 AM 20.0083 -99.8907 157° South  Level FlightAware Approximate
Tue 05:02:00 AM 19.9507 -99.8651 157° South  Level FlightAware Approximate
Tue 05:03:00 AM 19.8935 -99.8384 155° Southeast  Level FlightAware Approximate
Tue 05:04:00 AM 19.8370 -99.8101 155° Southeast  Level FlightAware Approximate
Tue 05:05:00 AM 19.7805 -99.7819 155° Southeast  Level FlightAware Approximate
Tue 05:06:00 AM 19.7240 -99.7536 155° Southeast  Level FlightAware Approximate
Tue 05:07:00 AM 19.6675 -99.7254 155° Southeast  Level FlightAware Approximate
Tue 05:08:00 AM 19.6135 -99.6923 148° Southeast  Level FlightAware Approximate
Tue 05:09:00 AM 19.5576 -99.6630 159° South  Level FlightAware Approximate
Tue 05:10:00 AM 19.4992 -99.6397 159° South  Level FlightAware Approximate
Tue 05:11:00 AM 19.4421 -99.6127 155° Southeast  Level FlightAware Approximate
Tue 05:12:00 AM 19.3857 -99.5845 155° Southeast  Level FlightAware Approximate
Tue 05:13:00 AM 19.3500 -99.5667 North  Level FlightAware Approximate
Tue 05:14:00 AM 19.3371 -99.5660 North  Level Estimated
Tue 05:15:00 AM 19.3371 -99.5660 North  Level Estimated
Tue 05:16:00 AM 19.3371 -99.5660 North  Level Estimated
Tue 05:17:00 AM 19.3371 -99.5660 North  Level Estimated
Tue 05:18:00 AM 19.3371 -99.5660 North  Level Estimated
Tue 05:19:00 AM 19.3371 -99.5660 North  Level Estimated
Tue 05:20:00 AM 19.3371 -99.5660 North  Level Estimated
Tue 05:21:00 AM 19.3371 -99.5660 North  Level Estimated
Tue 05:22:00 AM 19.3371 -99.5660 North  Level Estimated
Tue 05:23:00 AM 19.3371 -99.5660 North  Level Estimated

Login

Don't have an account? Register now (free) for customized features, flight alerts, and more!